sensor_id;sensor_type;location;lat;lon;timestamp;P1;P2;P0
56360;PMS7003;42611;51.132;13.588;2024-03-02T00:04:03;66.3;52.3;
56360;PMS7003;42611;51.132;13.588;2024-03-02T00:09:01;67.6;52.8;
56360;PMS7003;42611;51.132;13.588;2024-03-02T00:14:01;67.9;52.6;
56360;PMS7003;42611;51.132;13.588;2024-03-02T00:19:03;69.1;54.5;
56360;PMS7003;42611;51.132;13.588;2024-03-02T00:24:02;68.6;54.7;
56360;PMS7003;42611;51.132;13.588;2024-03-02T00:29:01;69.7;56.0;
56360;PMS7003;42611;51.132;13.588;2024-03-02T00:34:05;69.2;55.7;
56360;PMS7003;42611;51.132;13.588;2024-03-02T00:39:01;68.6;55.7;
56360;PMS7003;42611;51.132;13.588;2024-03-02T00:44:02;67.8;54.1;
56360;PMS7003;42611;51.132;13.588;2024-03-02T00:49:04;68.1;54.0;
56360;PMS7003;42611;51.132;13.588;2024-03-02T00:54:02;68.2;53.7;
56360;PMS7003;42611;51.132;13.588;2024-03-02T00:59:02;68.7;54.3;
56360;PMS7003;42611;51.132;13.588;2024-03-02T01:04:01;69.8;55.3;
56360;PMS7003;42611;51.132;13.588;2024-03-02T01:09:02;71.2;57.8;
56360;PMS7003;42611;51.132;13.588;2024-03-02T01:14:01;71.4;58.2;
56360;PMS7003;42611;51.132;13.588;2024-03-02T01:19:02;70.2;57.1;
56360;PMS7003;42611;51.132;13.588;2024-03-02T01:24:01;68.8;55.7;
56360;PMS7003;42611;51.132;13.588;2024-03-02T01:29:01;67.8;54.4;
56360;PMS7003;42611;51.132;13.588;2024-03-02T01:34:01;67.5;53.8;
56360;PMS7003;42611;51.132;13.588;2024-03-02T01:39:01;68.8;55.7;
56360;PMS7003;42611;51.132;13.588;2024-03-02T01:44:02;70.5;58.3;
56360;PMS7003;42611;51.132;13.588;2024-03-02T01:50:01;72.5;60.9;
56360;PMS7003;42611;51.132;13.588;2024-03-02T01:55:02;72.6;61.4;
56360;PMS7003;42611;51.132;13.588;2024-03-02T02:00:02;71.6;60.1;
56360;PMS7003;42611;51.132;13.588;2024-03-02T02:05:01;69.1;57.4;
56360;PMS7003;42611;51.132;13.588;2024-03-02T02:10:01;67.5;54.7;
56360;PMS7003;42611;51.132;13.588;2024-03-02T02:15:02;66.0;52.5;
56360;PMS7003;42611;51.132;13.588;2024-03-02T02:20:01;65.0;51.7;
56360;PMS7003;42611;51.132;13.588;2024-03-02T02:25:01;65.5;51.9;
56360;PMS7003;42611;51.132;13.588;2024-03-02T02:30:02;66.0;52.0;
56360;PMS7003;42611;51.132;13.588;2024-03-02T02:35:01;66.5;52.6;
56360;PMS7003;42611;51.132;13.588;2024-03-02T02:40:02;67.0;53.1;
56360;PMS7003;42611;51.132;13.588;2024-03-02T02:45:02;68.1;53.9;
56360;PMS7003;42611;51.132;13.588;2024-03-02T02:50:02;68.6;53.9;
56360;PMS7003;42611;51.132;13.588;2024-03-02T02:55:03;69.2;55.1;
56360;PMS7003;42611;51.132;13.588;2024-03-02T03:00:06;69.6;56.0;
56360;PMS7003;42611;51.132;13.588;2024-03-02T03:05:01;69.2;56.1;
56360;PMS7003;42611;51.132;13.588;2024-03-02T03:10:02;70.5;58.6;
56360;PMS7003;42611;51.132;13.588;2024-03-02T03:15:02;68.2;56.7;
56360;PMS7003;42611;51.132;13.588;2024-03-02T03:20:01;67.9;55.6;
56360;PMS7003;42611;51.132;13.588;2024-03-02T03:25:02;68.6;56.8;
56360;PMS7003;42611;51.132;13.588;2024-03-02T03:30:02;68.1;55.8;
56360;PMS7003;42611;51.132;13.588;2024-03-02T03:35:01;66.5;53.3;
56360;PMS7003;42611;51.132;13.588;2024-03-02T03:40:02;68.7;54.8;
56360;PMS7003;42611;51.132;13.588;2024-03-02T03:45:03;69.2;55.6;
56360;PMS7003;42611;51.132;13.588;2024-03-02T03:50:01;68.2;53.2;
56360;PMS7003;42611;51.132;13.588;2024-03-02T03:55:01;67.7;53.1;
56360;PMS7003;42611;51.132;13.588;2024-03-02T04:00:02;67.2;52.6;
56360;PMS7003;42611;51.132;13.588;2024-03-02T04:05:01;64.9;51.5;
56360;PMS7003;42611;51.132;13.588;2024-03-02T04:10:01;64.1;50.6;
56360;PMS7003;42611;51.132;13.588;2024-03-02T04:15:03;63.6;50.2;
56360;PMS7003;42611;51.132;13.588;2024-03-02T04:20:01;64.4;50.4;
56360;PMS7003;42611;51.132;13.588;2024-03-02T04:25:02;66.1;51.8;
56360;PMS7003;42611;51.132;13.588;2024-03-02T04:30:03;68.8;54.7;
56360;PMS7003;42611;51.132;13.588;2024-03-02T04:35:01;68.7;54.8;
56360;PMS7003;42611;51.132;13.588;2024-03-02T04:40:02;69.0;55.2;
56360;PMS7003;42611;51.132;13.588;2024-03-02T04:45:02;68.4;55.1;
56360;PMS7003;42611;51.132;13.588;2024-03-02T04:50:06;68.6;56.6;
56360;PMS7003;42611;51.132;13.588;2024-03-02T04:55:01;67.8;55.2;
56360;PMS7003;42611;51.132;13.588;2024-03-02T05:00:02;68.3;55.3;
56360;PMS7003;42611;51.132;13.588;2024-03-02T05:05:01;68.2;55.2;
56360;PMS7003;42611;51.132;13.588;2024-03-02T05:10:02;69.1;55.7;
56360;PMS7003;42611;51.132;13.588;2024-03-02T05:15:02;68.6;54.1;
56360;PMS7003;42611;51.132;13.588;2024-03-02T05:20:02;67.8;53.3;
56360;PMS7003;42611;51.132;13.588;2024-03-02T05:25:04;68.0;53.6;
56360;PMS7003;42611;51.132;13.588;2024-03-02T05:30:02;67.8;53.4;
56360;PMS7003;42611;51.132;13.588;2024-03-02T05:35:01;66.2;52.3;
56360;PMS7003;42611;51.132;13.588;2024-03-02T05:40:01;64.3;50.7;
56360;PMS7003;42611;51.132;13.588;2024-03-02T05:45:02;64.0;50.5;
56360;PMS7003;42611;51.132;13.588;2024-03-02T05:50:01;63.9;51.0;
56360;PMS7003;42611;51.132;13.588;2024-03-02T05:55:01;63.2;50.0;
56360;PMS7003;42611;51.132;13.588;2024-03-02T06:00:02;64.3;50.4;
56360;PMS7003;42611;51.132;13.588;2024-03-02T06:05:01;65.7;51.1;
56360;PMS7003;42611;51.132;13.588;2024-03-02T06:10:02;67.2;52.9;
56360;PMS7003;42611;51.132;13.588;2024-03-02T06:15:02;66.6;51.4;
56360;PMS7003;42611;51.132;13.588;2024-03-02T06:20:01;67.2;52.7;
56360;PMS7003;42611;51.132;13.588;2024-03-02T06:25:01;66.8;52.8;
56360;PMS7003;42611;51.132;13.588;2024-03-02T06:30:02;66.8;53.4;
56360;PMS7003;42611;51.132;13.588;2024-03-02T06:35:01;66.3;53.1;
56360;PMS7003;42611;51.132;13.588;2024-03-02T06:40:01;68.0;55.6;
56360;PMS7003;42611;51.132;13.588;2024-03-02T06:45:03;68.3;55.5;
56360;PMS7003;42611;51.132;13.588;2024-03-02T06:50:01;69.6;57.0;
56360;PMS7003;42611;51.132;13.588;2024-03-02T06:55:02;69.1;56.4;
56360;PMS7003;42611;51.132;13.588;2024-03-02T07:00:02;69.7;56.6;
56360;PMS7003;42611;51.132;13.588;2024-03-02T07:05:02;68.6;55.1;
56360;PMS7003;42611;51.132;13.588;2024-03-02T07:10:04;69.4;56.3;
56360;PMS7003;42611;51.132;13.588;2024-03-02T07:16:02;69.1;55.6;
56360;PMS7003;42611;51.132;13.588;2024-03-02T07:21:01;70.0;56.4;
56360;PMS7003;42611;51.132;13.588;2024-03-02T07:31:03;69.8;56.1;
56360;PMS7003;42611;51.132;13.588;2024-03-02T07:36:06;69.7;56.2;
56360;PMS7003;42611;51.132;13.588;2024-03-02T07:41:01;69.6;56.4;
56360;PMS7003;42611;51.132;13.588;2024-03-02T07:46:01;70.3;58.1;
56360;PMS7003;42611;51.132;13.588;2024-03-02T07:51:01;71.4;59.6;
56360;PMS7003;42611;51.132;13.588;2024-03-02T07:56:01;73.8;63.4;
56360;PMS7003;42611;51.132;13.588;2024-03-02T08:01:01;74.8;65.2;
56360;PMS7003;42611;51.132;13.588;2024-03-02T08:06:01;76.1;67.4;
56360;PMS7003;42611;51.132;13.588;2024-03-02T08:11:02;77.2;68.4;
56360;PMS7003;42611;51.132;13.588;2024-03-02T08:16:01;77.6;68.7;
56360;PMS7003;42611;51.132;13.588;2024-03-02T08:21:01;77.2;68.2;
56360;PMS7003;42611;51.132;13.588;2024-03-02T08:26:01;77.0;67.7;
56360;PMS7003;42611;51.132;13.588;2024-03-02T08:31:01;79.8;69.6;
56360;PMS7003;42611;51.132;13.588;2024-03-02T08:36:01;79.3;69.2;
56360;PMS7003;42611;51.132;13.588;2024-03-02T08:41:01;81.1;72.0;
56360;PMS7003;42611;51.132;13.588;2024-03-02T08:46:01;81.7;73.0;
56360;PMS7003;42611;51.132;13.588;2024-03-02T08:51:01;82.0;73.1;
56360;PMS7003;42611;51.132;13.588;2024-03-02T08:56:03;78.2;69.4;
56360;PMS7003;42611;51.132;13.588;2024-03-02T09:01:02;77.2;68.8;
56360;PMS7003;42611;51.132;13.588;2024-03-02T09:06:01;74.0;64.3;
56360;PMS7003;42611;51.132;13.588;2024-03-02T09:11:01;72.6;61.3;
56360;PMS7003;42611;51.132;13.588;2024-03-02T09:16:01;70.4;59.0;
56360;PMS7003;42611;51.132;13.588;2024-03-02T09:21:01;69.9;58.3;
56360;PMS7003;42611;51.132;13.588;2024-03-02T09:26:01;69.5;56.6;
56360;PMS7003;42611;51.132;13.588;2024-03-02T09:31:03;67.8;54.7;
56360;PMS7003;42611;51.132;13.588;2024-03-02T09:36:01;65.8;52.8;
56360;PMS7003;42611;51.132;13.588;2024-03-02T09:41:01;65.0;51.4;
56360;PMS7003;42611;51.132;13.588;2024-03-02T09:46:01;63.1;49.7;
56360;PMS7003;42611;51.132;13.588;2024-03-02T09:51:01;60.7;47.8;
56360;PMS7003;42611;51.132;13.588;2024-03-02T09:56:02;60.8;47.7;
56360;PMS7003;42611;51.132;13.588;2024-03-02T10:01:05;60.3;47.2;
56360;PMS7003;42611;51.132;13.588;2024-03-02T10:06:35;59.6;46.1;
56360;PMS7003;42611;51.132;13.588;2024-03-02T10:11:01;58.4;45.2;
56360;PMS7003;42611;51.132;13.588;2024-03-02T10:16:11;58.3;44.9;
56360;PMS7003;42611;51.132;13.588;2024-03-02T10:21:17;56.7;43.9;
56360;PMS7003;42611;51.132;13.588;2024-03-02T10:26:01;55.1;42.8;
56360;PMS7003;42611;51.132;13.588;2024-03-02T10:31:01;53.8;42.5;
56360;PMS7003;42611;51.132;13.588;2024-03-02T10:36:02;52.4;41.6;
56360;PMS7003;42611;51.132;13.588;2024-03-02T10:41:01;50.4;40.6;
56360;PMS7003;42611;51.132;13.588;2024-03-02T10:46:01;49.1;39.3;
56360;PMS7003;42611;51.132;13.588;2024-03-02T10:51:01;47.8;38.6;
56360;PMS7003;42611;51.132;13.588;2024-03-02T10:56:07;46.8;37.6;
56360;PMS7003;42611;51.132;13.588;2024-03-02T11:01:03;44.7;35.9;
56360;PMS7003;42611;51.132;13.588;2024-03-02T11:06:01;45.1;35.9;
56360;PMS7003;42611;51.132;13.588;2024-03-02T11:11:04;44.1;35.4;
56360;PMS7003;42611;51.132;13.588;2024-03-02T11:16:12;43.5;35.3;
56360;PMS7003;42611;51.132;13.588;2024-03-02T11:21:01;41.7;34.3;
56360;PMS7003;42611;51.132;13.588;2024-03-02T11:26:17;43.4;35.7;
56360;PMS7003;42611;51.132;13.588;2024-03-02T11:31:01;41.8;35.0;
56360;PMS7003;42611;51.132;13.588;2024-03-02T11:36:01;40.7;34.4;
56360;PMS7003;42611;51.132;13.588;2024-03-02T11:41:02;40.1;33.6;
56360;PMS7003;42611;51.132;13.588;2024-03-02T11:46:03;39.0;33.1;
56360;PMS7003;42611;51.132;13.588;2024-03-02T11:51:01;36.5;31.6;
56360;PMS7003;42611;51.132;13.588;2024-03-02T11:56:02;33.3;29.3;
56360;PMS7003;42611;51.132;13.588;2024-03-02T12:01:02;31.6;27.8;
56360;PMS7003;42611;51.132;13.588;2024-03-02T12:06:01;29.6;26.6;
56360;PMS7003;42611;51.132;13.588;2024-03-02T12:11:02;28.9;26.3;
56360;PMS7003;42611;51.132;13.588;2024-03-02T12:16:02;27.8;25.1;
56360;PMS7003;42611;51.132;13.588;2024-03-02T12:21:01;26.3;23.6;
56360;PMS7003;42611;51.132;13.588;2024-03-02T12:26:01;26.6;24.0;
56360;PMS7003;42611;51.132;13.588;2024-03-02T12:31:01;25.4;23.6;
56360;PMS7003;42611;51.132;13.588;2024-03-02T12:36:01;24.7;22.6;
56360;PMS7003;42611;51.132;13.588;2024-03-02T12:41:02;25.2;23.5;
56360;PMS7003;42611;51.132;13.588;2024-03-02T12:46:01;24.1;22.6;
56360;PMS7003;42611;51.132;13.588;2024-03-02T12:51:01;22.3;21.4;
56360;PMS7003;42611;51.132;13.588;2024-03-02T12:56:01;21.5;20.6;
56360;PMS7003;42611;51.132;13.588;2024-03-02T13:01:05;21.3;21.0;
56360;PMS7003;42611;51.132;13.588;2024-03-02T13:06:01;20.9;20.4;
56360;PMS7003;42611;51.132;13.588;2024-03-02T13:11:01;24.2;23.1;
56360;PMS7003;42611;51.132;13.588;2024-03-02T13:16:01;24.8;23.2;
56360;PMS7003;42611;51.132;13.588;2024-03-02T13:21:01;27.0;24.6;
56360;PMS7003;42611;51.132;13.588;2024-03-02T13:26:01;28.0;25.3;
56360;PMS7003;42611;51.132;13.588;2024-03-02T13:31:01;28.4;25.6;
56360;PMS7003;42611;51.132;13.588;2024-03-02T13:41:02;29.7;26.6;
56360;PMS7003;42611;51.132;13.588;2024-03-02T13:46:01;29.0;25.8;
56360;PMS7003;42611;51.132;13.588;2024-03-02T13:51:01;29.6;25.8;
56360;PMS7003;42611;51.132;13.588;2024-03-02T13:56:02;30.0;26.0;
56360;PMS7003;42611;51.132;13.588;2024-03-02T14:01:03;30.5;26.6;
56360;PMS7003;42611;51.132;13.588;2024-03-02T14:06:01;31.8;27.9;
56360;PMS7003;42611;51.132;13.588;2024-03-02T14:11:01;32.4;29.0;
56360;PMS7003;42611;51.132;13.588;2024-03-02T14:22:02;32.8;29.9;
56360;PMS7003;42611;51.132;13.588;2024-03-02T14:27:38;33.6;30.1;
56360;PMS7003;42611;51.132;13.588;2024-03-02T14:32:01;32.8;29.7;
56360;PMS7003;42611;51.132;13.588;2024-03-02T14:37:01;33.4;30.0;
56360;PMS7003;42611;51.132;13.588;2024-03-02T14:42:01;33.7;30.0;
56360;PMS7003;42611;51.132;13.588;2024-03-02T14:47:01;34.2;30.3;
56360;PMS7003;42611;51.132;13.588;2024-03-02T14:52:01;33.8;29.8;
56360;PMS7003;42611;51.132;13.588;2024-03-02T14:57:01;35.7;30.4;
56360;PMS7003;42611;51.132;13.588;2024-03-02T15:02:01;38.0;31.6;
56360;PMS7003;42611;51.132;13.588;2024-03-02T15:07:02;40.1;33.0;
56360;PMS7003;42611;51.132;13.588;2024-03-02T15:12:01;41.8;33.8;
56360;PMS7003;42611;51.132;13.588;2024-03-02T15:17:01;42.2;34.7;
56360;PMS7003;42611;51.132;13.588;2024-03-02T15:22:01;41.6;34.8;
56360;PMS7003;42611;51.132;13.588;2024-03-02T15:27:01;39.9;34.0;
56360;PMS7003;42611;51.132;13.588;2024-03-02T15:32:02;39.4;33.7;
56360;PMS7003;42611;51.132;13.588;2024-03-02T15:37:01;38.4;33.0;
56360;PMS7003;42611;51.132;13.588;2024-03-02T15:42:01;39.0;33.2;
56360;PMS7003;42611;51.132;13.588;2024-03-02T15:47:01;39.7;33.4;
56360;PMS7003;42611;51.132;13.588;2024-03-02T15:52:02;42.1;34.8;
56360;PMS7003;42611;51.132;13.588;2024-03-02T15:57:01;40.6;34.1;
56360;PMS7003;42611;51.132;13.588;2024-03-02T16:02:01;41.5;34.8;
56360;PMS7003;42611;51.132;13.588;2024-03-02T16:12:01;40.6;34.1;
56360;PMS7003;42611;51.132;13.588;2024-03-02T16:17:01;38.5;32.9;
56360;PMS7003;42611;51.132;13.588;2024-03-02T16:22:02;40.5;33.7;
56360;PMS7003;42611;51.132;13.588;2024-03-02T16:27:01;40.9;33.8;
56360;PMS7003;42611;51.132;13.588;2024-03-02T16:32:01;34.1;27.9;
56360;PMS7003;42611;51.132;13.588;2024-03-02T16:37:01;35.7;28.5;
56360;PMS7003;42611;51.132;13.588;2024-03-02T16:42:01;37.1;29.2;
56360;PMS7003;42611;51.132;13.588;2024-03-02T16:47:01;37.6;29.6;
56360;PMS7003;42611;51.132;13.588;2024-03-02T16:52:01;39.1;30.9;
56360;PMS7003;42611;51.132;13.588;2024-03-02T16:57:01;48.4;38.7;
56360;PMS7003;42611;51.132;13.588;2024-03-02T17:02:01;49.6;39.8;
56360;PMS7003;42611;51.132;13.588;2024-03-02T17:07:01;50.2;40.4;
56360;PMS7003;42611;51.132;13.588;2024-03-02T17:12:01;51.0;41.2;
56360;PMS7003;42611;51.132;13.588;2024-03-02T17:17:01;52.2;41.6;
56360;PMS7003;42611;51.132;13.588;2024-03-02T17:22:01;52.3;41.7;
56360;PMS7003;42611;51.132;13.588;2024-03-02T17:27:01;53.0;42.4;
56360;PMS7003;42611;51.132;13.588;2024-03-02T17:32:01;54.9;43.6;
56360;PMS7003;42611;51.132;13.588;2024-03-02T17:37:01;55.2;43.6;
56360;PMS7003;42611;51.132;13.588;2024-03-02T17:47:01;55.1;43.9;
56360;PMS7003;42611;51.132;13.588;2024-03-02T17:52:01;54.3;43.2;
56360;PMS7003;42611;51.132;13.588;2024-03-02T17:57:01;52.0;41.8;
56360;PMS7003;42611;51.132;13.588;2024-03-02T18:03:01;51.4;41.0;
56360;PMS7003;42611;51.132;13.588;2024-03-02T18:08:06;49.6;40.2;
56360;PMS7003;42611;51.132;13.588;2024-03-02T18:13:01;49.5;39.8;
56360;PMS7003;42611;51.132;13.588;2024-03-02T18:18:01;48.7;39.4;
56360;PMS7003;42611;51.132;13.588;2024-03-02T18:23:01;50.2;40.7;
56360;PMS7003;42611;51.132;13.588;2024-03-02T18:28:01;51.6;42.2;
56360;PMS7003;42611;51.132;13.588;2024-03-02T18:33:01;52.0;42.5;
56360;PMS7003;42611;51.132;13.588;2024-03-02T18:38:01;50.8;41.7;
56360;PMS7003;42611;51.132;13.588;2024-03-02T18:43:01;52.2;42.4;
56360;PMS7003;42611;51.132;13.588;2024-03-02T18:48:07;52.0;42.0;
56360;PMS7003;42611;51.132;13.588;2024-03-02T18:53:01;51.6;41.6;
56360;PMS7003;42611;51.132;13.588;2024-03-02T18:58:01;52.0;41.8;
56360;PMS7003;42611;51.132;13.588;2024-03-02T19:03:01;53.6;42.6;
56360;PMS7003;42611;51.132;13.588;2024-03-02T19:08:01;53.1;42.4;
56360;PMS7003;42611;51.132;13.588;2024-03-02T19:13:01;52.8;42.4;
56360;PMS7003;42611;51.132;13.588;2024-03-02T19:18:01;52.3;42.4;
56360;PMS7003;42611;51.132;13.588;2024-03-02T19:23:02;52.2;42.4;
56360;PMS7003;42611;51.132;13.588;2024-03-02T19:28:01;52.8;43.4;
56360;PMS7003;42611;51.132;13.588;2024-03-02T19:33:01;54.6;44.5;
56360;PMS7003;42611;51.132;13.588;2024-03-02T19:38:01;55.6;45.3;
56360;PMS7003;42611;51.132;13.588;2024-03-02T19:43:02;56.1;45.5;
56360;PMS7003;42611;51.132;13.588;2024-03-02T19:48:02;57.9;46.8;
56360;PMS7003;42611;51.132;13.588;2024-03-02T19:53:01;59.7;47.8;
56360;PMS7003;42611;51.132;13.588;2024-03-02T19:58:01;61.2;48.8;
56360;PMS7003;42611;51.132;13.588;2024-03-02T20:03:01;63.5;50.4;
56360;PMS7003;42611;51.132;13.588;2024-03-02T20:09:01;65.7;52.0;
56360;PMS7003;42611;51.132;13.588;2024-03-02T20:14:01;64.9;51.7;
56360;PMS7003;42611;51.132;13.588;2024-03-02T20:19:02;64.0;50.8;
56360;PMS7003;42611;51.132;13.588;2024-03-02T20:24:01;62.9;50.2;
56360;PMS7003;42611;51.132;13.588;2024-03-02T20:29:01;62.4;49.8;
56360;PMS7003;42611;51.132;13.588;2024-03-02T20:34:01;62.2;49.3;
56360;PMS7003;42611;51.132;13.588;2024-03-02T20:39:01;62.3;49.3;
56360;PMS7003;42611;51.132;13.588;2024-03-02T20:44:01;61.7;49.6;
56360;PMS7003;42611;51.132;13.588;2024-03-02T20:49:01;60.8;48.9;
56360;PMS7003;42611;51.132;13.588;2024-03-02T20:54:01;59.1;47.8;
56360;PMS7003;42611;51.132;13.588;2024-03-02T20:59:02;59.7;48.1;
56360;PMS7003;42611;51.132;13.588;2024-03-02T21:04:01;61.0;48.7;
56360;PMS7003;42611;51.132;13.588;2024-03-02T21:09:01;61.3;48.8;
56360;PMS7003;42611;51.132;13.588;2024-03-02T21:14:01;61.6;49.3;
56360;PMS7003;42611;51.132;13.588;2024-03-02T21:19:02;63.1;50.5;
56360;PMS7003;42611;51.132;13.588;2024-03-02T21:24:01;62.0;50.1;
56360;PMS7003;42611;51.132;13.588;2024-03-02T21:29:02;63.6;51.7;
56360;PMS7003;42611;51.132;13.588;2024-03-02T21:34:01;66.6;54.7;
56360;PMS7003;42611;51.132;13.588;2024-03-02T21:39:06;67.5;55.1;
56360;PMS7003;42611;51.132;13.588;2024-03-02T21:44:01;67.2;54.8;
56360;PMS7003;42611;51.132;13.588;2024-03-02T21:49:01;68.0;55.5;
56360;PMS7003;42611;51.132;13.588;2024-03-02T21:54:07;65.8;53.8;
56360;PMS7003;42611;51.132;13.588;2024-03-02T21:59:01;60.3;49.3;
56360;PMS7003;42611;51.132;13.588;2024-03-02T22:04:01;61.2;49.8;
56360;PMS7003;42611;51.132;13.588;2024-03-02T22:09:02;62.5;50.6;
56360;PMS7003;42611;51.132;13.588;2024-03-02T22:14:01;63.2;50.3;
56360;PMS7003;42611;51.132;13.588;2024-03-02T22:19:02;65.2;51.8;
56360;PMS7003;42611;51.132;13.588;2024-03-02T22:24:01;70.2;55.3;
56360;PMS7003;42611;51.132;13.588;2024-03-02T22:29:01;71.1;56.2;
56360;PMS7003;42611;51.132;13.588;2024-03-02T22:34:01;71.2;56.6;
56360;PMS7003;42611;51.132;13.588;2024-03-02T22:39:01;70.9;56.8;
56360;PMS7003;42611;51.132;13.588;2024-03-02T22:44:01;71.6;56.6;
56360;PMS7003;42611;51.132;13.588;2024-03-02T22:49:01;72.4;57.1;
56360;PMS7003;42611;51.132;13.588;2024-03-02T22:54:02;72.9;58.3;
56360;PMS7003;42611;51.132;13.588;2024-03-02T22:59:01;73.8;58.2;
56360;PMS7003;42611;51.132;13.588;2024-03-02T23:04:02;73.6;58.3;
56360;PMS7003;42611;51.132;13.588;2024-03-02T23:09:06;72.7;57.8;
56360;PMS7003;42611;51.132;13.588;2024-03-02T23:14:01;71.8;57.0;
56360;PMS7003;42611;51.132;13.588;2024-03-02T23:19:03;71.9;57.1;
56360;PMS7003;42611;51.132;13.588;2024-03-02T23:24:01;71.3;57.4;
56360;PMS7003;42611;51.132;13.588;2024-03-02T23:29:02;72.6;58.4;
56360;PMS7003;42611;51.132;13.588;2024-03-02T23:34:01;73.4;58.7;
56360;PMS7003;42611;51.132;13.588;2024-03-02T23:39:01;73.1;58.3;
56360;PMS7003;42611;51.132;13.588;2024-03-02T23:44:01;73.0;57.0;
56360;PMS7003;42611;51.132;13.588;2024-03-02T23:49:01;72.4;56.5;
56360;PMS7003;42611;51.132;13.588;2024-03-02T23:54:01;73.0;57.0;
56360;PMS7003;42611;51.132;13.588;2024-03-02T23:59:01;73.1;57.7;
